Target — 9HA2149 — position and weather

sailwx.info

Track history (hours):
 
Tides and Currents Weather Stations Pressure Air Temp Water Temp Dewpoint Dewpoint Depression Visibility Wind Speed Wind Dir Waves Ship Positions

Target

Last reported at 2015-Feb-22 19:25 UTC. Time now 2015-Feb-28 19:24 UTC.
Position N 55°41' E 006°37'.

Length 250 m; draft 8 m.

Type: Tanker. MMSI: 248057000.

Date/timePositionNaut miles runAvg speedWind from/ knotsBaromVisibWave heightAir tempDewpointWater temp
2015-Feb-22 19:25N 55°41' E 006°37'  
2015-Feb-20 03:20N 55°25' E 006°34'1113.0
2015-Feb-20 02:30N 55°15' E 006°41'1212.8
2015-Feb-20 01:33N 55°04' E 006°50'1212.4
2015-Feb-20 00:33N 54°53' E 006°58'1712.0
2015-Feb-19 23:07N 54°37' E 007°09'611.3
2015-Feb-19 22:33N 54°31' E 007°14'1111.1
2015-Feb-19 21:34N 54°21' E 007°22'1111.0
2015-Feb-19 20:33N 54°11' E 007°30'1111.4
2015-Feb-19 19:33N 54°01' E 007°39'1312.4
2015-Feb-19 18:32N 53°51' E 007°51'1212.6
2015-Feb-19 17:33N 53°41' E 008°05'8 8.4
2015-Feb-19 16:33N 53°33' E 008°10'0 0.0
2015-Feb-19 15:33N 53°33' E 008°10'0 0.0
2015-Feb-19 14:33N 53°33' E 008°10'0 0.0
2015-Feb-19 13:30N 53°33' E 008°10'0 0.0
2015-Feb-19 12:30N 53°33' E 008°10'0 0.0
2015-Feb-19 11:21N 53°33' E 008°10'0 0.0
2015-Feb-19 10:33N 53°33' E 008°10'0 0.0
2015-Feb-19 09:33N 53°33' E 008°10'0 0.0
2015-Feb-19 08:33N 53°33' E 008°10'0 0.0
2015-Feb-19 07:33N 53°33' E 008°10'0 0.0
2015-Feb-19 06:33N 53°33' E 008°10'0 0.0
2015-Feb-19 05:33N 53°33' E 008°10'0 0.0
2015-Feb-19 04:30N 53°33' E 008°10'0 0.0
2015-Feb-19 03:33N 53°33' E 008°10'0 0.0
2015-Feb-19 02:33N 53°33' E 008°10'0 0.0
2015-Feb-19 01:33N 53°33' E 008°10'0 0.0
2015-Feb-19 00:30N 53°33' E 008°10'0 0.0
2015-Feb-18 23:33N 53°33' E 008°10'0 0.0
2015-Feb-18 22:33N 53°33' E 008°10'0 0.0
2015-Feb-18 21:33N 53°33' E 008°10'0 0.0
2015-Feb-18 20:30N 53°33' E 008°10'0 0.0
2015-Feb-18 19:30N 53°33' E 008°10'0 0.0
2015-Feb-18 18:33N 53°33' E 008°10'0 0.0
2015-Feb-18 17:33N 53°33' E 008°10'0 0.0
2015-Feb-18 16:33N 53°33' E 008°10'1 1.4
2015-Feb-18 15:33N 53°35' E 008°10'6 6.4
2015-Feb-18 14:33N 53°41' E 008°05'8 7.6
2015-Feb-18 13:33N 53°48' E 008°01'1010.4
2015-Feb-18 12:33N 53°53' E 007°45'2 0.6
2015-Feb-18 09:32N 53°54' E 007°47'0 0.0
2015-Feb-18 08:20N 53°54' E 007°47'2 2.0
2015-Feb-18 07:33N 53°54' E 007°44'8 8.4
2015-Feb-18 06:33N 54°00' E 007°34'4 3.8
2015-Feb-18 05:32N 54°03' E 007°29'0 0.1
2015-Feb-18 04:29N 54°03' E 007°29'0 0.2
2015-Feb-18 03:32N 54°03' E 007°29'0 0.0
2015-Feb-18 02:20N 54°03' E 007°29'0 0.1
2015-Feb-18 01:32N 54°03' E 007°29'0 0.1
2015-Feb-18 00:29N 54°03' E 007°29'0 0.1
2015-Feb-17 23:10N 54°03' E 007°29'0 0.0
2015-Feb-17 22:26N 54°03' E 007°29'0 0.0
2015-Feb-17 21:32N 54°03' E 007°29'0 0.0
2015-Feb-17 20:32N 54°03' E 007°29'0 0.0
2015-Feb-17 19:32N 54°03' E 007°29'0 0.0
2015-Feb-17 17:32N 54°03' E 007°29'0 0.2
2015-Feb-17 16:29N 54°03' E 007°29'0 0.1
2015-Feb-17 15:26N 54°03' E 007°29'0 0.0
2015-Feb-17 14:29N 54°03' E 007°29'0 0.0
2015-Feb-17 13:32N 54°03' E 007°29'0 0.0
2015-Feb-17 12:29N 54°03' E 007°29'0 0.2
2015-Feb-17 11:29N 54°03' E 007°29'0 0.1
2015-Feb-17 10:32N 54°03' E 007°29'0 0.0
2015-Feb-17 09:32N 54°03' E 007°29'0 0.0
2015-Feb-17 08:32N 54°03' E 007°29'0 0.0
2015-Feb-17 07:29N 54°03' E 007°29'0 0.0
2015-Feb-17 06:23N 54°03' E 007°29'0 0.1
2015-Feb-17 04:29N 54°03' E 007°29'0 0.3
2015-Feb-17 03:32N 54°03' E 007°29'0 0.0
2015-Feb-17 02:29N 54°03' E 007°29'0 0.0
2015-Feb-17 01:26N 54°03' E 007°29'0 0.0
2015-Feb-17 00:29N 54°03' E 007°29'0 0.0
2015-Feb-16 23:32N 54°03' E 007°29'0 0.1
2015-Feb-16 22:29N 54°03' E 007°29'0 0.2
2015-Feb-16 21:29N 54°03' E 007°29'0 0.0
2015-Feb-16 20:32N 54°03' E 007°29'0 0.0
2015-Feb-16 19:20N 54°03' E 007°29'0 0.0
2015-Feb-16 18:20N 54°03' E 007°29'0 0.0
2015-Feb-16 17:32N 54°03' E 007°29'0 0.1
2015-Feb-16 16:32N 54°03' E 007°29'0 0.1
2015-Feb-16 15:32N 54°03' E 007°29'0 0.1
2015-Feb-16 14:29N 54°03' E 007°29'0 0.0
2015-Feb-16 13:31N 54°03' E 007°29'0 0.0
2015-Feb-16 12:31N 54°03' E 007°29'0 0.0
2015-Feb-16 11:22N 54°03' E 007°29'0 0.0
2015-Feb-16 10:31N 54°03' E 007°29'0 0.1
2015-Feb-16 09:32N 54°03' E 007°29'0 0.0
2015-Feb-16 08:31N 54°03' E 007°29'0 0.1
2015-Feb-16 07:31N 54°03' E 007°29'0 0.1
2015-Feb-16 06:25N 54°03' E 007°29'0 0.0
2015-Feb-16 05:31N 54°03' E 007°29'0 0.1
2015-Feb-16 04:22N 54°03' E 007°29'0 0.1
2015-Feb-16 03:28N 54°03' E 007°29'0 0.1
2015-Feb-16 02:28N 54°03' E 007°28'0 0.0
2015-Feb-16 01:31N 54°03' E 007°28'0 0.0
2015-Feb-16 00:31N 54°03' E 007°28'0 0.0
2015-Feb-15 23:31N 54°03' E 007°28'0 0.0
2015-Feb-15 22:31N 54°03' E 007°28'0 0.0
2015-Feb-15 21:28N 54°03' E 007°29'0 0.0
2015-Feb-15 20:28N 54°03' E 007°29'0 0.0
2015-Feb-15 19:31N 54°03' E 007°29'0 0.2
2015-Feb-15 18:31N 54°03' E 007°29'0 0.1
2015-Feb-15 17:28N 54°03' E 007°29'0 0.1
2015-Feb-15 16:28N 54°03' E 007°29'0 0.1
2015-Feb-15 15:25N 54°03' E 007°29'0 0.0
2015-Feb-15 14:28N 54°03' E 007°28'0 0.0
2015-Feb-15 13:28N 54°03' E 007°28'0 0.0
2015-Feb-15 12:10N 54°03' E 007°28'0 0.0
2015-Feb-15 11:31N 54°03' E 007°28'0 0.0
2015-Feb-15 10:31N 54°03' E 007°28'0 0.0
2015-Feb-15 09:25N 54°03' E 007°28'0 0.0
2015-Feb-15 08:31N 54°03' E 007°28'0 0.0
2015-Feb-15 07:31N 54°03' E 007°28'0 0.0
2015-Feb-15 06:28N 54°03' E 007°28'0 0.0
2015-Feb-15 05:28N 54°03' E 007°28'0 0.0
2015-Feb-15 04:28N 54°03' E 007°29'0 0.0
2015-Feb-15 03:31N 54°03' E 007°29'0 0.0
2015-Feb-15 02:31N 54°03' E 007°28'0 0.0
2015-Feb-15 01:31N 54°03' E 007°29'0 0.0
2015-Feb-15 00:31N 54°03' E 007°29'0 0.0
2015-Feb-14 23:28N 54°03' E 007°29'0 0.0
2015-Feb-14 22:31N 54°03' E 007°29'0 0.0
2015-Feb-14 21:28N 54°03' E 007°29'0 0.0
2015-Feb-14 20:31N 54°03' E 007°29'0 0.0
2015-Feb-14 19:25N 54°03' E 007°29'0 0.1
2015-Feb-14 18:25N 54°03' E 007°29'0 0.2
2015-Feb-14 17:31N 54°03' E 007°29'0 0.1
2015-Feb-14 16:28N 54°03' E 007°29'0 0.0
2015-Feb-14 15:29N 54°03' E 007°29'0 0.1
2015-Feb-14 14:28N 54°03' E 007°29'0 0.1
2015-Feb-14 13:31N 54°03' E 007°29'0 0.1
2015-Feb-14 12:31N 54°03' E 007°29'0 0.0
2015-Feb-14 11:31N 54°03' E 007°29'0 0.0
2015-Feb-14 10:25N 54°03' E 007°29'0 0.0
2015-Feb-14 09:31N 54°03' E 007°29'0 0.0
2015-Feb-14 08:28N 54°03' E 007°29'0 0.0
2015-Feb-14 07:28N 54°03' E 007°29'0 0.0
2015-Feb-14 06:31N 54°03' E 007°29'0 0.1
2015-Feb-14 05:31N 54°03' E 007°29'0 0.1
2015-Feb-14 04:31N 54°03' E 007°29'0 0.0
2015-Feb-14 03:31N 54°03' E 007°29'0 0.0
2015-Feb-14 02:25N 54°03' E 007°29'0 0.0
2015-Feb-14 01:28N 54°03' E 007°29'0 0.2
2015-Feb-14 00:31N 54°03' E 007°29'0 0.1
2015-Feb-13 23:31N 54°03' E 007°29'0 0.0
2015-Feb-13 22:28N 54°03' E 007°29'0 0.0
2015-Feb-13 21:31N 54°03' E 007°29'0 0.0
2015-Feb-13 20:22N 54°03' E 007°29'0 0.0
2015-Feb-13 19:25N 54°03' E 007°29'0 0.0
2015-Feb-13 18:31N 54°03' E 007°29'0 0.0
2015-Feb-13 17:28N 54°03' E 007°29'0 0.1
2015-Feb-13 15:31N 54°03' E 007°29'0 0.0
2015-Feb-13 14:28N 54°03' E 007°29'0 0.0
2015-Feb-13 13:31N 54°03' E 007°29'0 0.1
2015-Feb-13 12:31N 54°03' E 007°29'0 0.1
2015-Feb-13 11:31N 54°03' E 007°29'0 0.1
2015-Feb-13 10:31N 54°03' E 007°29'0 0.0
2015-Feb-13 09:31N 54°03' E 007°29'0 0.0
2015-Feb-13 08:31N 54°03' E 007°29'0 0.0
2015-Feb-13 07:19N 54°03' E 007°29'0 0.1
2015-Feb-13 06:28N 54°03' E 007°29'0 0.0
2015-Feb-13 05:22N 54°03' E 007°29'0 0.1
2015-Feb-13 04:31N 54°03' E 007°29'0 0.1
2015-Feb-13 03:25N 54°03' E 007°29'0 0.0
2015-Feb-13 02:28N 54°03' E 007°29'0 0.0
2015-Feb-13 01:31N 54°03' E 007°29'0 0.0
2015-Feb-13 00:25N 54°03' E 007°29'0 0.1
2015-Feb-12 23:31N 54°03' E 007°29'0 0.1
2015-Feb-12 22:28N 54°03' E 007°29'0 0.1
2015-Feb-12 21:31N 54°03' E 007°29'0 0.0
2015-Feb-12 20:31N 54°03' E 007°29'  
Track history (hours):
 
Tides and Currents Weather Stations Pressure Air Temp Water Temp Dewpoint Dewpoint Depression Visibility Wind Speed Wind Dir Waves Ship Positions

Target

Last reported at 2015-Feb-22 19:25 UTC. Time now 2015-Feb-28 19:24 UTC.
Position N 55°41' E 006°37'.

Length 250 m; draft 8 m.

Type: Tanker. MMSI: 248057000.

Date/timePositionNaut miles runAvg speedWind from/ knotsBaromVisibWave heightAir tempDewpointWater temp
2015-Feb-22 19:25N 55°41' E 006°37'  
2015-Feb-20 03:20N 55°25' E 006°34'1113.0
2015-Feb-20 02:30N 55°15' E 006°41'1212.8
2015-Feb-20 01:33N 55°04' E 006°50'1212.4
2015-Feb-20 00:33N 54°53' E 006°58'1712.0
2015-Feb-19 23:07N 54°37' E 007°09'611.3
2015-Feb-19 22:33N 54°31' E 007°14'1111.1
2015-Feb-19 21:34N 54°21' E 007°22'1111.0
2015-Feb-19 20:33N 54°11' E 007°30'1111.4
2015-Feb-19 19:33N 54°01' E 007°39'1312.4
2015-Feb-19 18:32N 53°51' E 007°51'1212.6
2015-Feb-19 17:33N 53°41' E 008°05'8 8.4
2015-Feb-19 16:33N 53°33' E 008°10'0 0.0
2015-Feb-19 15:33N 53°33' E 008°10'0 0.0
2015-Feb-19 14:33N 53°33' E 008°10'0 0.0
2015-Feb-19 13:30N 53°33' E 008°10'0 0.0
2015-Feb-19 12:30N 53°33' E 008°10'0 0.0
2015-Feb-19 11:21N 53°33' E 008°10'0 0.0
2015-Feb-19 10:33N 53°33' E 008°10'0 0.0
2015-Feb-19 09:33N 53°33' E 008°10'0 0.0
2015-Feb-19 08:33N 53°33' E 008°10'0 0.0
2015-Feb-19 07:33N 53°33' E 008°10'0 0.0
2015-Feb-19 06:33N 53°33' E 008°10'0 0.0
2015-Feb-19 05:33N 53°33' E 008°10'0 0.0
2015-Feb-19 04:30N 53°33' E 008°10'0 0.0
2015-Feb-19 03:33N 53°33' E 008°10'0 0.0
2015-Feb-19 02:33N 53°33' E 008°10'0 0.0
2015-Feb-19 01:33N 53°33' E 008°10'0 0.0
2015-Feb-19 00:30N 53°33' E 008°10'0 0.0
2015-Feb-18 23:33N 53°33' E 008°10'0 0.0
2015-Feb-18 22:33N 53°33' E 008°10'0 0.0
2015-Feb-18 21:33N 53°33' E 008°10'0 0.0
2015-Feb-18 20:30N 53°33' E 008°10'0 0.0
2015-Feb-18 19:30N 53°33' E 008°10'0 0.0
2015-Feb-18 18:33N 53°33' E 008°10'0 0.0
2015-Feb-18 17:33N 53°33' E 008°10'0 0.0
2015-Feb-18 16:33N 53°33' E 008°10'1 1.4
2015-Feb-18 15:33N 53°35' E 008°10'6 6.4
2015-Feb-18 14:33N 53°41' E 008°05'8 7.6
2015-Feb-18 13:33N 53°48' E 008°01'1010.4
2015-Feb-18 12:33N 53°53' E 007°45'2 0.6
2015-Feb-18 09:32N 53°54' E 007°47'0 0.0
2015-Feb-18 08:20N 53°54' E 007°47'2 2.0
2015-Feb-18 07:33N 53°54' E 007°44'8 8.4
2015-Feb-18 06:33N 54°00' E 007°34'4 3.8
2015-Feb-18 05:32N 54°03' E 007°29'0 0.1
2015-Feb-18 04:29N 54°03' E 007°29'0 0.2
2015-Feb-18 03:32N 54°03' E 007°29'0 0.0
2015-Feb-18 02:20N 54°03' E 007°29'0 0.1
2015-Feb-18 01:32N 54°03' E 007°29'0 0.1
2015-Feb-18 00:29N 54°03' E 007°29'0 0.1
2015-Feb-17 23:10N 54°03' E 007°29'0 0.0
2015-Feb-17 22:26N 54°03' E 007°29'0 0.0
2015-Feb-17 21:32N 54°03' E 007°29'0 0.0
2015-Feb-17 20:32N 54°03' E 007°29'0 0.0
2015-Feb-17 19:32N 54°03' E 007°29'0 0.0
2015-Feb-17 17:32N 54°03' E 007°29'0 0.2
2015-Feb-17 16:29N 54°03' E 007°29'0 0.1
2015-Feb-17 15:26N 54°03' E 007°29'0 0.0
2015-Feb-17 14:29N 54°03' E 007°29'0 0.0
2015-Feb-17 13:32N 54°03' E 007°29'0 0.0
2015-Feb-17 12:29N 54°03' E 007°29'0 0.2
2015-Feb-17 11:29N 54°03' E 007°29'0 0.1
2015-Feb-17 10:32N 54°03' E 007°29'0 0.0
2015-Feb-17 09:32N 54°03' E 007°29'0 0.0
2015-Feb-17 08:32N 54°03' E 007°29'0 0.0
2015-Feb-17 07:29N 54°03' E 007°29'0 0.0
2015-Feb-17 06:23N 54°03' E 007°29'0 0.1
2015-Feb-17 04:29N 54°03' E 007°29'0 0.3
2015-Feb-17 03:32N 54°03' E 007°29'0 0.0
2015-Feb-17 02:29N 54°03' E 007°29'0 0.0
2015-Feb-17 01:26N 54°03' E 007°29'0 0.0
2015-Feb-17 00:29N 54°03' E 007°29'0 0.0
2015-Feb-16 23:32N 54°03' E 007°29'0 0.1
2015-Feb-16 22:29N 54°03' E 007°29'0 0.2
2015-Feb-16 21:29N 54°03' E 007°29'0 0.0
2015-Feb-16 20:32N 54°03' E 007°29'0 0.0
2015-Feb-16 19:20N 54°03' E 007°29'0 0.0
2015-Feb-16 18:20N 54°03' E 007°29'0 0.0
2015-Feb-16 17:32N 54°03' E 007°29'0 0.1
2015-Feb-16 16:32N 54°03' E 007°29'0 0.1
2015-Feb-16 15:32N 54°03' E 007°29'0 0.1
2015-Feb-16 14:29N 54°03' E 007°29'0 0.0
2015-Feb-16 13:31N 54°03' E 007°29'0 0.0
2015-Feb-16 12:31N 54°03' E 007°29'0 0.0
2015-Feb-16 11:22N 54°03' E 007°29'0 0.0
2015-Feb-16 10:31N 54°03' E 007°29'0 0.1
2015-Feb-16 09:32N 54°03' E 007°29'0 0.0
2015-Feb-16 08:31N 54°03' E 007°29'0 0.1
2015-Feb-16 07:31N 54°03' E 007°29'0 0.1
2015-Feb-16 06:25N 54°03' E 007°29'0 0.0
2015-Feb-16 05:31N 54°03' E 007°29'0 0.1
2015-Feb-16 04:22N 54°03' E 007°29'0 0.1
2015-Feb-16 03:28N 54°03' E 007°29'0 0.1
2015-Feb-16 02:28N 54°03' E 007°28'0 0.0
2015-Feb-16 01:31N 54°03' E 007°28'0 0.0
2015-Feb-16 00:31N 54°03' E 007°28'0 0.0
2015-Feb-15 23:31N 54°03' E 007°28'0 0.0
2015-Feb-15 22:31N 54°03' E 007°28'0 0.0
2015-Feb-15 21:28N 54°03' E 007°29'0 0.0
2015-Feb-15 20:28N 54°03' E 007°29'0 0.0
2015-Feb-15 19:31N 54°03' E 007°29'0 0.2
2015-Feb-15 18:31N 54°03' E 007°29'0 0.1
2015-Feb-15 17:28N 54°03' E 007°29'0 0.1
2015-Feb-15 16:28N 54°03' E 007°29'0 0.1
2015-Feb-15 15:25N 54°03' E 007°29'0 0.0
2015-Feb-15 14:28N 54°03' E 007°28'0 0.0
2015-Feb-15 13:28N 54°03' E 007°28'0 0.0
2015-Feb-15 12:10N 54°03' E 007°28'0 0.0
2015-Feb-15 11:31N 54°03' E 007°28'0 0.0
2015-Feb-15 10:31N 54°03' E 007°28'0 0.0
2015-Feb-15 09:25N 54°03' E 007°28'0 0.0
2015-Feb-15 08:31N 54°03' E 007°28'0 0.0
2015-Feb-15 07:31N 54°03' E 007°28'0 0.0
2015-Feb-15 06:28N 54°03' E 007°28'0 0.0
2015-Feb-15 05:28N 54°03' E 007°28'0 0.0
2015-Feb-15 04:28N 54°03' E 007°29'0 0.0
2015-Feb-15 03:31N 54°03' E 007°29'0 0.0
2015-Feb-15 02:31N 54°03' E 007°28'0 0.0
2015-Feb-15 01:31N 54°03' E 007°29'0 0.0
2015-Feb-15 00:31N 54°03' E 007°29'0 0.0
2015-Feb-14 23:28N 54°03' E 007°29'0 0.0
2015-Feb-14 22:31N 54°03' E 007°29'0 0.0
2015-Feb-14 21:28N 54°03' E 007°29'0 0.0
2015-Feb-14 20:31N 54°03' E 007°29'0 0.0
2015-Feb-14 19:25N 54°03' E 007°29'0 0.1
2015-Feb-14 18:25N 54°03' E 007°29'0 0.2
2015-Feb-14 17:31N 54°03' E 007°29'0 0.1
2015-Feb-14 16:28N 54°03' E 007°29'0 0.0
2015-Feb-14 15:29N 54°03' E 007°29'0 0.1
2015-Feb-14 14:28N 54°03' E 007°29'0 0.1
2015-Feb-14 13:31N 54°03' E 007°29'0 0.1
2015-Feb-14 12:31N 54°03' E 007°29'0 0.0
2015-Feb-14 11:31N 54°03' E 007°29'0 0.0
2015-Feb-14 10:25N 54°03' E 007°29'0 0.0
2015-Feb-14 09:31N 54°03' E 007°29'0 0.0
2015-Feb-14 08:28N 54°03' E 007°29'0 0.0
2015-Feb-14 07:28N 54°03' E 007°29'0 0.0
2015-Feb-14 06:31N 54°03' E 007°29'0 0.1
2015-Feb-14 05:31N 54°03' E 007°29'0 0.1
2015-Feb-14 04:31N 54°03' E 007°29'0 0.0
2015-Feb-14 03:31N 54°03' E 007°29'0 0.0
2015-Feb-14 02:25N 54°03' E 007°29'0 0.0
2015-Feb-14 01:28N 54°03' E 007°29'0 0.2
2015-Feb-14 00:31N 54°03' E 007°29'0 0.1
2015-Feb-13 23:31N 54°03' E 007°29'0 0.0
2015-Feb-13 22:28N 54°03' E 007°29'0 0.0
2015-Feb-13 21:31N 54°03' E 007°29'0 0.0
2015-Feb-13 20:22N 54°03' E 007°29'0 0.0
2015-Feb-13 19:25N 54°03' E 007°29'0 0.0
2015-Feb-13 18:31N 54°03' E 007°29'0 0.0
2015-Feb-13 17:28N 54°03' E 007°29'0 0.1
2015-Feb-13 15:31N 54°03' E 007°29'0 0.0
2015-Feb-13 14:28N 54°03' E 007°29'0 0.0
2015-Feb-13 13:31N 54°03' E 007°29'0 0.1
2015-Feb-13 12:31N 54°03' E 007°29'0 0.1
2015-Feb-13 11:31N 54°03' E 007°29'0 0.1
2015-Feb-13 10:31N 54°03' E 007°29'0 0.0
2015-Feb-13 09:31N 54°03' E 007°29'0 0.0
2015-Feb-13 08:31N 54°03' E 007°29'0 0.0
2015-Feb-13 07:19N 54°03' E 007°29'0 0.1
2015-Feb-13 06:28N 54°03' E 007°29'0 0.0
2015-Feb-13 05:22N 54°03' E 007°29'0 0.1
2015-Feb-13 04:31N 54°03' E 007°29'0 0.1
2015-Feb-13 03:25N 54°03' E 007°29'0 0.0
2015-Feb-13 02:28N 54°03' E 007°29'0 0.0
2015-Feb-13 01:31N 54°03' E 007°29'0 0.0
2015-Feb-13 00:25N 54°03' E 007°29'0 0.1
2015-Feb-12 23:31N 54°03' E 007°29'0 0.1
2015-Feb-12 22:28N 54°03' E 007°29'0 0.1
2015-Feb-12 21:31N 54°03' E 007°29'0 0.0
2015-Feb-12 20:31N 54°03' E 007°29'  

Dump ship's entire track history